This is the latest recevied weather packets stored in our database for station/object E22ZMG-1. If no packets are shown the sender has not sent any weather packets the latest 10 day(s).
| Time | Temp. | Humidity | Pressure | Rain* | Wind** | Luminosity | Snow |
|---|---|---|---|---|---|---|---|
| 1777356423 | 41.67° C | 32% | 972 hPa | - | - | 0 W/m² | - |
| 1777355797 | 42.22° C | 30% | 972 hPa | - | - | 0 W/m² | - |
| 1777355172 | 42.22° C | 30% | 972 hPa | - | - | 0 W/m² | - |
| 1777354546 | 41.67° C | 31% | 973 hPa | - | - | 0 W/m² | - |
| 1777353921 | 40° C | 34% | 973 hPa | - | - | 0 W/m² | - |
| 1777353296 | 40° C | 34% | 973 hPa | - | - | 0 W/m² | - |
| 1777352671 | 38.89° C | 36% | 973 hPa | - | - | 0 W/m² | - |
| 1777352046 | 39.44° C | 33% | 973 hPa | - | - | 0 W/m² | - |
| 1777351421 | 39.44° C | 33% | 973 hPa | - | - | 0 W/m² | - |
| 1777350796 | 39.44° C | 33% | 974 hPa | - | - | 0 W/m² | - |
| 1777350172 | 38.33° C | 36% | 974 hPa | - | - | 0 W/m² | - |
| 1777349546 | 38.33° C | 38% | 974 hPa | - | - | 0 W/m² | - |
| 1777348921 | 37.78° C | 38% | 974 hPa | - | - | 0 W/m² | - |
| 1777348295 | 37.22° C | 38% | 974 hPa | - | - | 0 W/m² | - |
| 1777347671 | 37.22° C | 39% | 974 hPa | - | - | 0 W/m² | - |
| 1777347046 | 36.67° C | 39% | 974 hPa | - | - | 0 W/m² | - |
| 1777346421 | 36.67° C | 39% | 974 hPa | - | - | 0 W/m² | - |
| 1777345797 | 37.22° C | 38% | 974 hPa | - | - | 0 W/m² | - |
| 1777345170 | 36.67° C | 38% | 974 hPa | - | - | 0 W/m² | - |
| 1777344545 | 36.67° C | 38% | 974 hPa | - | - | 0 W/m² | - |
| 1777343920 | 36.11° C | 39% | 974 hPa | - | - | 0 W/m² | - |
| 1777343295 | 36.11° C | 40% | 974 hPa | - | - | 0 W/m² | - |
| 1777342670 | 35.56° C | 41% | 974 hPa | - | - | 0 W/m² | - |
| 1777342045 | 35° C | 43% | 974 hPa | - | - | 0 W/m² | - |
| 1777341420 | 35° C | 43% | 974 hPa | - | - | 0 W/m² | - |
* Rain since midnight (hover to see other rain measurements)
** Current wind speed in m/s (hover to see current wind gust speed)